createdAt,value
2023-05-22T00:02:12.859Z,30.80
2023-05-22T00:04:41.745Z,30.20
2023-05-22T00:07:10.105Z,30.17
2023-05-22T00:09:38.421Z,29.57
2023-05-22T00:12:07.585Z,30.13
2023-05-22T00:14:37.255Z,29.98
2023-05-22T00:17:05.932Z,30.34
2023-05-22T00:19:35.194Z,29.95
2023-05-22T00:22:05.408Z,30.80
2023-05-22T00:24:33.679Z,30.36
2023-05-22T00:27:01.977Z,30.38
2023-05-22T00:29:30.424Z,30.54
2023-05-22T00:32:00.053Z,30.50
2023-05-22T00:34:28.331Z,29.43
2023-05-22T00:36:56.650Z,29.81
2023-05-22T00:39:24.939Z,29.45
2023-05-22T00:41:53.684Z,29.32
2023-05-22T00:44:23.090Z,30.29
2023-05-22T00:46:52.050Z,30.17
2023-05-22T00:49:21.762Z,30.70
2023-05-22T00:51:50.520Z,30.76
2023-05-22T00:54:18.864Z,30.16
2023-05-22T00:56:47.424Z,29.84
2023-05-22T00:59:15.811Z,29.78
2023-05-22T01:01:45.224Z,30.12
2023-05-22T01:04:15.519Z,30.72
2023-05-22T01:06:47.711Z,30.92
2023-05-22T01:09:16.356Z,30.77
2023-05-22T01:11:51.500Z,30.88
2023-05-22T01:14:28.174Z,31.05
2023-05-22T01:17:08.805Z,31.03
2023-05-22T01:19:42.285Z,30.89
2023-05-22T01:22:21.672Z,30.65
2023-05-22T01:25:12.932Z,30.42
2023-05-22T01:28:04.285Z,30.32
2023-05-22T01:30:49.339Z,30.38
2023-05-22T01:33:18.227Z,29.62
2023-05-22T01:35:49.158Z,30.10
2023-05-22T01:38:18.125Z,30.26
2023-05-22T01:40:47.220Z,30.27
2023-05-22T01:43:16.404Z,30.35
2023-05-22T01:45:46.069Z,30.23
2023-05-22T01:48:14.377Z,30.10
2023-05-22T01:50:42.699Z,29.03
2023-05-22T01:53:14.244Z,29.44
2023-05-22T01:55:47.523Z,29.46
2023-05-22T01:58:22.555Z,29.45
2023-05-22T02:00:54.903Z,29.66
2023-05-22T02:03:28.705Z,29.75
2023-05-22T02:06:00.698Z,29.78
2023-05-22T02:08:29.164Z,29.80
2023-05-22T02:10:57.937Z,29.77
2023-05-22T02:13:26.379Z,29.58
2023-05-22T02:15:56.669Z,29.53
2023-05-22T02:18:29.466Z,29.41
2023-05-22T02:20:58.024Z,29.36
2023-05-22T02:23:26.637Z,29.41
2023-05-22T02:25:55.510Z,29.46
2023-05-22T02:28:23.802Z,29.30
2023-05-22T02:30:52.254Z,28.63
2023-05-22T02:33:22.120Z,29.21
2023-05-22T02:35:50.503Z,29.17
2023-05-22T02:38:18.780Z,29.35
2023-05-22T02:40:47.156Z,29.36
2023-05-22T02:43:15.448Z,29.41
2023-05-22T02:45:43.751Z,29.39
2023-05-22T02:48:13.286Z,29.30
2023-05-22T02:50:44.243Z,29.24
2023-05-22T02:53:14.403Z,29.25
2023-05-22T02:55:42.735Z,29.31
2023-05-22T02:58:13.301Z,29.27
2023-05-22T03:00:41.555Z,29.26
2023-05-22T03:03:10.018Z,29.15
2023-05-22T03:05:38.517Z,29.13
2023-05-22T03:08:08.302Z,29.08
2023-05-22T03:10:36.925Z,28.83
2023-05-22T03:13:05.433Z,28.77
2023-05-22T03:15:33.732Z,28.60
2023-05-22T03:18:02.375Z,28.38
2023-05-22T03:20:31.448Z,28.53
2023-05-22T03:22:59.738Z,27.39
2023-05-22T03:25:29.346Z,27.32
2023-05-22T03:27:57.701Z,27.13
2023-05-22T03:30:26.145Z,27.85
2023-05-22T03:32:54.581Z,27.68
2023-05-22T03:35:22.900Z,28.24
2023-05-22T03:37:51.255Z,28.43
2023-05-22T03:40:19.600Z,28.57
2023-05-22T03:42:50.028Z,28.45
2023-05-22T03:45:18.414Z,28.54
2023-05-22T03:47:46.726Z,28.43
2023-05-22T03:50:15.028Z,28.41
2023-05-22T03:52:43.317Z,28.62
2023-05-22T03:55:12.096Z,28.73
2023-05-22T03:57:40.762Z,28.66
2023-05-22T04:00:12.622Z,28.83
2023-05-22T04:02:45.317Z,28.74
2023-05-22T04:05:13.896Z,28.60
2023-05-22T04:07:42.184Z,29.44
2023-05-22T04:10:11.191Z,29.30
2023-05-22T04:12:39.453Z,29.30
2023-05-22T04:15:10.372Z,29.89
2023-05-22T04:17:40.884Z,30.40
2023-05-22T04:20:11.268Z,30.52
2023-05-22T04:22:39.893Z,30.57
2023-05-22T04:25:08.707Z,31.34
2023-05-22T04:27:38.162Z,30.01
2023-05-22T04:30:08.877Z,29.09
2023-05-22T04:32:38.614Z,29.75
2023-05-22T04:35:07.418Z,30.82
2023-05-22T04:37:35.912Z,28.88
2023-05-22T04:40:07.440Z,29.34
2023-05-22T04:42:35.972Z,29.90
2023-05-22T04:45:04.445Z,32.32
2023-05-22T04:47:32.958Z,32.95
2023-05-22T04:50:03.930Z,33.97
2023-05-22T04:52:32.238Z,33.97
2023-05-22T04:55:01.123Z,34.11
2023-05-22T04:57:30.149Z,33.10
2023-05-22T04:59:58.731Z,33.98
2023-05-22T05:02:27.016Z,34.82
2023-05-22T05:04:55.347Z,34.03
2023-05-22T05:07:25.284Z,34.61
2023-05-22T05:09:53.611Z,34.07
2023-05-22T05:12:21.904Z,35.43
2023-05-22T05:14:50.216Z,34.97
2023-05-22T05:17:18.455Z,35.63
2023-05-22T05:19:46.715Z,36.11
2023-05-22T05:22:15.001Z,35.39
2023-05-22T05:24:44.578Z,35.14
2023-05-22T05:27:12.907Z,34.49
2023-05-22T05:29:41.250Z,34.87
2023-05-22T05:32:09.924Z,34.19
2023-05-22T05:34:38.263Z,34.83
2023-05-22T05:37:06.927Z,34.76
2023-05-22T05:39:35.182Z,35.26
2023-05-22T05:42:04.997Z,34.21
2023-05-22T05:44:33.318Z,34.64
2023-05-22T05:47:02.133Z,35.63
2023-05-22T05:49:30.389Z,34.11
2023-05-22T05:51:58.695Z,34.61
2023-05-22T05:54:27.320Z,34.16
2023-05-22T05:56:55.739Z,34.95
2023-05-22T05:59:25.540Z,34.33
2023-05-22T06:01:54.020Z,34.49
2023-05-22T06:04:22.511Z,33.79
2023-05-22T06:06:51.830Z,33.37
2023-05-22T06:09:20.570Z,32.69
2023-05-22T06:11:48.855Z,32.51
2023-05-22T06:14:17.120Z,32.35
2023-05-22T06:16:46.939Z,31.75
2023-05-22T06:19:16.203Z,32.40
2023-05-22T06:21:44.621Z,32.87
2023-05-22T06:24:12.947Z,33.03
2023-05-22T06:26:41.202Z,32.41
2023-05-22T06:29:09.502Z,32.00
2023-05-22T06:31:38.525Z,32.80
2023-05-22T06:34:08.334Z,32.92
2023-05-22T06:36:37.505Z,31.34
2023-05-22T06:39:05.828Z,32.27
2023-05-22T06:41:35.604Z,32.11
2023-05-22T06:44:05.473Z,32.63
2023-05-22T06:46:33.809Z,30.58
2023-05-22T06:49:02.173Z,30.92
2023-05-22T06:51:32.743Z,29.63
2023-05-22T06:54:01.095Z,30.70
2023-05-22T06:56:29.379Z,30.96
2023-05-22T06:58:58.676Z,31.09
2023-05-22T07:01:29.237Z,29.65
2023-05-22T07:03:58.871Z,30.10
2023-05-22T07:06:27.505Z,30.11
2023-05-22T07:08:57.640Z,30.86
2023-05-22T07:11:25.936Z,31.59
2023-05-22T07:13:54.181Z,31.98
2023-05-22T07:16:23.430Z,32.30
2023-05-22T07:18:52.253Z,31.15
2023-05-22T07:21:23.742Z,33.07
2023-05-22T07:23:52.291Z,32.68
2023-05-22T07:26:22.647Z,31.50
2023-05-22T07:28:50.857Z,31.41
2023-05-22T07:31:19.105Z,32.67
2023-05-22T07:33:47.461Z,32.78
2023-05-22T07:36:16.797Z,33.48
2023-05-22T07:38:45.062Z,33.42
2023-05-22T07:41:13.332Z,33.60
2023-05-22T07:43:42.963Z,33.86
2023-05-22T07:46:11.984Z,32.44
2023-05-22T07:48:40.296Z,33.04
2023-05-22T07:51:08.918Z,33.21
2023-05-22T07:53:37.282Z,33.09
2023-05-22T07:56:05.733Z,34.56
2023-05-22T07:58:34.709Z,33.71
2023-05-22T08:01:06.307Z,32.96
2023-05-22T08:03:36.646Z,33.33
2023-05-22T08:06:05.588Z,34.09
2023-05-22T08:08:34.683Z,33.27
2023-05-22T08:11:04.401Z,33.90
2023-05-22T08:13:33.337Z,34.50
2023-05-22T08:16:01.836Z,33.16
2023-05-22T08:18:31.588Z,34.32
2023-05-22T08:21:00.827Z,34.79
2023-05-22T08:23:29.952Z,33.93
2023-05-22T08:25:58.956Z,33.10
2023-05-22T08:28:27.370Z,34.39
2023-05-22T08:30:55.965Z,35.22
2023-05-22T08:33:24.457Z,34.57
2023-05-22T08:35:54.208Z,35.43
2023-05-22T08:38:22.567Z,34.18
2023-05-22T08:40:51.690Z,35.40
2023-05-22T08:43:21.241Z,34.24
2023-05-22T08:45:55.995Z,34.77
2023-05-22T08:48:24.641Z,35.97
2023-05-22T08:50:57.555Z,33.81
2023-05-22T08:53:26.643Z,34.91
2023-05-22T08:55:55.379Z,35.77
2023-05-22T08:58:23.764Z,35.30
2023-05-22T09:00:52.746Z,34.46
2023-05-22T09:03:21.881Z,35.93
2023-05-22T09:05:50.670Z,36.83
2023-05-22T09:08:21.365Z,37.28
2023-05-22T09:10:49.979Z,36.51
2023-05-22T09:13:28.291Z,36.59
2023-05-22T09:16:00.067Z,37.52
2023-05-22T09:18:28.941Z,37.25
2023-05-22T09:20:59.020Z,37.43
2023-05-22T09:23:29.905Z,37.70
2023-05-22T09:25:59.485Z,38.02
2023-05-22T09:28:28.992Z,35.98
2023-05-22T09:30:57.379Z,36.55
2023-05-22T09:33:25.862Z,36.17
2023-05-22T09:35:54.529Z,36.83
2023-05-22T09:38:24.417Z,35.81
2023-05-22T09:40:55.674Z,36.09
2023-05-22T09:43:25.749Z,35.96
2023-05-22T09:46:04.261Z,38.28
2023-05-22T09:48:35.267Z,36.34
2023-05-22T09:51:04.465Z,36.60
2023-05-22T09:53:34.168Z,37.52
2023-05-22T09:56:07.390Z,37.95
2023-05-22T09:58:36.809Z,37.43
2023-05-22T10:01:05.250Z,38.60
2023-05-22T10:03:35.378Z,37.19
2023-05-22T10:06:04.100Z,37.73
2023-05-22T10:08:38.336Z,37.96
2023-05-22T10:11:08.366Z,37.56
2023-05-22T10:13:36.767Z,37.11
2023-05-22T10:16:07.599Z,37.83
2023-05-22T10:18:37.121Z,38.84
2023-05-22T10:21:05.857Z,39.79
2023-05-22T10:23:34.305Z,39.26
2023-05-22T10:26:03.105Z,37.35
2023-05-22T10:28:39.095Z,38.35
2023-05-22T10:31:14.213Z,37.45
2023-05-22T10:33:46.148Z,39.32
2023-05-22T10:36:20.116Z,39.92
2023-05-22T10:38:58.206Z,39.80
2023-05-22T10:41:27.322Z,38.10
2023-05-22T10:43:57.841Z,36.88
2023-05-22T10:46:26.255Z,38.18
2023-05-22T10:48:56.392Z,37.85
2023-05-22T10:51:24.668Z,39.36
2023-05-22T10:53:54.334Z,40.01
2023-05-22T10:56:25.241Z,38.96
2023-05-22T10:58:59.184Z,37.26
2023-05-22T11:01:27.817Z,38.21
2023-05-22T11:03:57.987Z,37.34
2023-05-22T11:06:34.068Z,40.01
2023-05-22T11:09:21.808Z,40.97
2023-05-22T11:12:13.934Z,39.52
2023-05-22T11:14:43.612Z,39.15
2023-05-22T11:17:13.642Z,40.58
2023-05-22T11:19:42.322Z,40.69
2023-05-22T11:22:10.644Z,38.37
2023-05-22T11:24:39.019Z,40.52
2023-05-22T11:27:08.340Z,39.53
2023-05-22T11:29:38.403Z,40.90
2023-05-22T11:32:09.799Z,39.78
2023-05-22T11:34:40.733Z,38.47
2023-05-22T11:37:09.756Z,40.71
2023-05-22T11:39:38.087Z,39.78
2023-05-22T11:42:06.986Z,39.96
2023-05-22T11:44:35.248Z,40.23
2023-05-22T11:47:04.246Z,40.08
2023-05-22T11:49:33.949Z,39.91
2023-05-22T11:52:02.225Z,40.83
2023-05-22T11:54:33.099Z,40.32
2023-05-22T11:57:01.373Z,39.53
2023-05-22T11:59:29.668Z,39.37
2023-05-22T12:01:58.110Z,39.29
2023-05-22T12:04:26.597Z,39.11
2023-05-22T12:06:56.729Z,39.38
2023-05-22T12:09:25.128Z,40.18
2023-05-22T12:11:56.247Z,39.67
2023-05-22T12:14:27.549Z,38.69
2023-05-22T12:16:56.350Z,40.48
2023-05-22T12:19:26.665Z,40.19
2023-05-22T12:21:56.426Z,39.92
2023-05-22T12:24:24.737Z,40.01
2023-05-22T12:26:53.312Z,40.11
2023-05-22T12:29:23.969Z,40.78
2023-05-22T12:31:52.542Z,40.57
2023-05-22T12:34:20.857Z,40.75
2023-05-22T12:36:49.285Z,40.26
2023-05-22T12:39:20.056Z,41.23
2023-05-22T12:41:48.463Z,41.58
2023-05-22T12:44:17.109Z,42.08
2023-05-22T12:46:45.475Z,40.65
2023-05-22T12:49:13.805Z,41.31
2023-05-22T12:51:42.126Z,40.93
2023-05-22T12:54:10.457Z,41.95
2023-05-22T12:56:40.147Z,40.86
2023-05-22T12:59:08.782Z,41.07
2023-05-22T13:01:37.106Z,40.17
2023-05-22T13:04:05.406Z,41.04
2023-05-22T13:06:33.749Z,40.57
2023-05-22T13:09:02.004Z,42.01
2023-05-22T13:11:30.327Z,41.46
2023-05-22T13:14:00.035Z,41.70
2023-05-22T13:16:28.503Z,40.40
2023-05-22T13:18:56.921Z,40.38
2023-05-22T13:21:26.419Z,40.54
2023-05-22T13:23:55.050Z,41.84
2023-05-22T13:26:23.373Z,40.21
2023-05-22T13:28:51.741Z,41.17
2023-05-22T13:31:21.395Z,41.90
2023-05-22T13:33:49.704Z,41.80
2023-05-22T13:36:19.154Z,41.68
2023-05-22T13:38:47.473Z,40.57
2023-05-22T13:41:17.701Z,41.27
2023-05-22T13:43:46.029Z,42.04
2023-05-22T13:46:14.309Z,41.72
2023-05-22T13:48:44.028Z,42.14
2023-05-22T13:51:12.373Z,40.28
2023-05-22T13:53:40.707Z,39.55
2023-05-22T13:56:09.008Z,40.22
2023-05-22T13:58:37.421Z,41.42
2023-05-22T14:01:05.957Z,41.52
2023-05-22T14:03:34.604Z,41.21
2023-05-22T14:06:04.329Z,41.04
2023-05-22T14:08:32.575Z,42.02
2023-05-22T14:11:01.067Z,42.41
2023-05-22T14:13:29.347Z,42.41
2023-05-22T14:15:57.614Z,42.82
2023-05-22T14:18:25.970Z,41.80
2023-05-22T14:20:54.267Z,42.47
2023-05-22T14:23:23.974Z,42.27
2023-05-22T14:25:52.336Z,42.49
2023-05-22T14:28:20.616Z,43.04
2023-05-22T14:30:49.039Z,42.80
2023-05-22T14:33:17.417Z,41.12
2023-05-22T14:35:45.998Z,40.50
2023-05-22T14:38:14.291Z,41.32
2023-05-22T14:40:44.047Z,41.99
2023-05-22T14:43:12.361Z,42.46
2023-05-22T14:45:41.045Z,41.84
2023-05-22T14:48:11.455Z,42.65
2023-05-22T14:50:39.817Z,43.55
2023-05-22T14:53:08.187Z,42.82
2023-05-22T14:55:36.759Z,43.01
2023-05-22T14:58:06.444Z,43.09
2023-05-22T15:00:34.982Z,42.87
2023-05-22T15:03:03.571Z,43.88
2023-05-22T15:05:31.901Z,44.37
2023-05-22T15:08:00.294Z,43.46
2023-05-22T15:10:29.001Z,41.71
2023-05-22T15:12:57.613Z,43.08
2023-05-22T15:15:27.530Z,44.11
2023-05-22T15:17:56.332Z,42.86
2023-05-22T15:20:24.714Z,44.12
2023-05-22T15:22:53.133Z,44.09
2023-05-22T15:25:21.452Z,43.88
2023-05-22T15:27:49.776Z,44.11
2023-05-22T15:30:19.137Z,42.97
2023-05-22T15:32:50.579Z,44.12
2023-05-22T15:35:18.915Z,44.40
2023-05-22T15:37:47.185Z,43.76
2023-05-22T15:40:18.334Z,42.85
2023-05-22T15:42:46.618Z,42.99
2023-05-22T15:45:14.916Z,39.37
2023-05-22T15:47:43.397Z,41.59
2023-05-22T15:50:13.195Z,42.13
2023-05-22T15:52:41.561Z,43.79
2023-05-22T15:55:10.123Z,43.52
2023-05-22T15:57:39.258Z,43.54
2023-05-22T16:00:08.899Z,44.46
2023-05-22T16:02:37.252Z,44.62
2023-05-22T16:05:06.446Z,44.37
2023-05-22T16:07:36.161Z,43.77
2023-05-22T16:10:05.111Z,43.27
2023-05-22T16:12:33.405Z,42.73
2023-05-22T16:15:03.292Z,43.12
2023-05-22T16:17:33.027Z,41.77
2023-05-22T16:20:01.468Z,42.37
2023-05-22T16:25:19.442Z,42.14
2023-05-22T16:27:47.559Z,43.14
2023-05-22T16:30:17.281Z,41.32
2023-05-22T16:32:46.589Z,43.18
2023-05-22T16:35:15.336Z,43.17
2023-05-22T16:37:43.592Z,43.04
2023-05-22T16:40:12.441Z,42.81
2023-05-22T16:42:42.139Z,42.53
2023-05-22T16:45:10.800Z,41.25
2023-05-22T16:47:39.217Z,43.79
2023-05-22T16:50:09.191Z,41.19
2023-05-22T16:52:37.700Z,43.45
2023-05-22T16:55:06.790Z,42.63
2023-05-22T16:57:35.132Z,43.99
2023-05-22T17:00:06.962Z,43.81
2023-05-22T17:02:35.513Z,42.75
2023-05-22T17:05:03.951Z,43.31
2023-05-22T17:07:32.650Z,44.12
2023-05-22T17:10:01.184Z,44.94
2023-05-22T17:12:29.548Z,43.71
2023-05-22T17:14:57.872Z,43.40
2023-05-22T17:17:27.632Z,45.25
2023-05-22T17:19:55.770Z,43.89
2023-05-22T17:22:23.873Z,45.43
2023-05-22T17:24:51.874Z,45.08
2023-05-22T17:27:31.995Z,44.51
2023-05-22T17:30:03.394Z,45.78
2023-05-22T17:32:32.976Z,44.30
2023-05-22T17:35:01.724Z,44.08
2023-05-22T17:37:29.712Z,43.33
2023-05-22T17:39:57.750Z,42.69
2023-05-22T17:42:25.971Z,41.87
2023-05-22T17:44:53.930Z,42.20
2023-05-22T17:47:22.010Z,42.17
2023-05-22T17:49:51.476Z,43.06
2023-05-22T17:52:19.482Z,43.03
2023-05-22T17:54:49.871Z,42.18
2023-05-22T17:57:17.872Z,41.17
2023-05-22T17:59:45.940Z,41.73
2023-05-22T18:02:13.946Z,41.67
2023-05-22T18:04:41.962Z,40.80
2023-05-22T18:07:11.298Z,40.67
2023-05-22T18:09:39.300Z,40.93
2023-05-22T18:12:10.893Z,40.06
2023-05-22T18:14:40.921Z,40.14
2023-05-22T18:17:08.908Z,40.24
2023-05-22T18:19:36.868Z,40.03
2023-05-22T18:22:04.973Z,40.56
2023-05-22T18:24:36.531Z,40.50
2023-05-22T18:27:04.691Z,39.81
2023-05-22T18:29:32.661Z,38.50
2023-05-22T18:32:00.871Z,39.02
2023-05-22T18:34:29.801Z,39.11
2023-05-22T18:36:59.627Z,39.25
2023-05-22T18:39:27.631Z,39.42
2023-05-22T18:41:58.424Z,39.05
2023-05-22T18:44:26.412Z,39.22
2023-05-22T18:46:54.568Z,39.11
2023-05-22T18:49:22.591Z,38.50
2023-05-22T18:51:50.946Z,38.59
2023-05-22T18:54:19.035Z,38.62
2023-05-22T18:56:47.086Z,38.49
2023-05-22T18:59:16.548Z,37.90
2023-05-22T19:01:45.764Z,37.92
2023-05-22T19:04:13.821Z,37.67
2023-05-22T19:06:42.254Z,37.28
2023-05-22T19:09:10.866Z,37.63
2023-05-22T19:11:38.959Z,37.69
2023-05-22T19:14:06.949Z,37.34
2023-05-22T19:16:36.375Z,37.40
2023-05-22T19:19:04.420Z,37.30
2023-05-22T19:21:32.651Z,37.26
2023-05-22T19:24:00.819Z,37.18
2023-05-22T19:26:28.915Z,37.22
2023-05-22T19:28:59.333Z,37.03
2023-05-22T19:31:27.668Z,37.00
2023-05-22T19:33:57.181Z,36.91
2023-05-22T19:36:25.288Z,36.82
2023-05-22T19:38:53.770Z,36.74
2023-05-22T19:41:23.142Z,36.42
2023-05-22T19:43:51.906Z,35.39
2023-05-22T19:46:19.979Z,35.06
2023-05-22T19:48:48.135Z,35.15
2023-05-22T19:51:17.540Z,35.17
2023-05-22T19:53:45.633Z,35.40
2023-05-22T19:56:13.724Z,35.25
2023-05-22T19:58:41.932Z,35.16
2023-05-22T20:01:10.274Z,35.17
2023-05-22T20:03:40.106Z,35.00
2023-05-22T20:06:08.327Z,34.36
2023-05-22T20:08:37.731Z,34.68
2023-05-22T20:11:05.845Z,33.50
2023-05-22T20:13:33.963Z,34.40
2023-05-22T20:16:04.120Z,33.63
2023-05-22T20:18:32.504Z,33.75
2023-05-22T20:21:00.524Z,34.64
2023-05-22T20:23:28.542Z,35.20
2023-05-22T20:25:57.944Z,35.06
2023-05-22T20:28:26.307Z,34.93
2023-05-22T20:30:54.409Z,35.30
2023-05-22T20:33:22.628Z,35.30
2023-05-22T20:35:53.264Z,35.14
2023-05-22T20:38:22.450Z,34.05
2023-05-22T20:40:52.045Z,34.46
2023-05-22T20:43:21.615Z,34.01
2023-05-22T20:45:50.450Z,34.23
2023-05-22T20:48:18.480Z,34.33
2023-05-22T20:50:47.616Z,33.12
2023-05-22T20:53:15.656Z,33.95
2023-05-22T20:55:43.682Z,34.22
2023-05-22T20:58:11.688Z,34.10
2023-05-22T21:00:42.076Z,34.32
2023-05-22T21:03:10.413Z,34.33
2023-05-22T21:05:38.656Z,33.88
2023-05-22T21:08:06.875Z,34.18
2023-05-22T21:10:34.904Z,34.19
2023-05-22T21:13:03.127Z,33.71
2023-05-22T21:15:31.136Z,34.38
2023-05-22T21:18:00.523Z,34.45
2023-05-22T21:20:28.619Z,34.47
2023-05-22T21:22:56.612Z,33.70
2023-05-22T21:25:24.667Z,33.04
2023-05-22T21:27:54.519Z,32.60
2023-05-22T21:30:22.798Z,32.75
2023-05-22T21:32:50.805Z,30.96
2023-05-22T21:35:20.212Z,31.52
2023-05-22T21:37:48.174Z,31.93
2023-05-22T21:40:16.233Z,30.86
2023-05-22T21:42:46.546Z,31.10
2023-05-22T21:45:15.289Z,30.76
2023-05-22T21:47:43.379Z,31.02
2023-05-22T21:50:11.801Z,30.53
2023-05-22T21:52:41.174Z,30.23
2023-05-22T21:55:09.387Z,30.16
2023-05-22T21:57:37.458Z,30.90
2023-05-22T22:00:05.741Z,31.21
2023-05-22T22:02:33.765Z,30.62
2023-05-22T22:05:01.761Z,30.91
2023-05-22T22:07:29.737Z,30.69
2023-05-22T22:09:59.081Z,31.76
2023-05-22T22:12:27.162Z,31.28
2023-05-22T22:14:55.218Z,31.69
2023-05-22T22:17:24.049Z,31.04
2023-05-22T22:19:53.598Z,31.62
2023-05-22T22:22:22.762Z,32.46
2023-05-22T22:24:50.844Z,32.85
2023-05-22T22:27:20.830Z,33.43
2023-05-22T22:29:48.861Z,33.25
2023-05-22T22:32:16.932Z,33.60
2023-05-22T22:34:45.323Z,33.73
2023-05-22T22:37:13.977Z,33.66
2023-05-22T22:39:41.961Z,33.51
2023-05-22T22:42:09.960Z,33.48
2023-05-22T22:44:39.357Z,33.18
2023-05-22T22:47:07.935Z,32.86
2023-05-22T22:49:37.225Z,32.85
2023-05-22T22:52:05.430Z,31.90
2023-05-22T22:54:33.720Z,31.60
2023-05-22T22:57:01.966Z,32.11
2023-05-22T22:59:29.987Z,32.78
2023-05-22T23:01:59.866Z,32.06
2023-05-22T23:04:28.143Z,33.20
2023-05-22T23:06:57.589Z,33.28
2023-05-22T23:09:25.601Z,33.46
2023-05-22T23:11:53.573Z,33.29
2023-05-22T23:14:21.559Z,31.62
2023-05-22T23:16:49.543Z,31.15
2023-05-22T23:19:18.965Z,32.64
2023-05-22T23:21:47.026Z,32.48
2023-05-22T23:24:15.089Z,32.62
2023-05-22T23:26:43.056Z,32.11
2023-05-22T23:29:11.090Z,31.10
2023-05-22T23:31:40.435Z,31.05
2023-05-22T23:34:08.623Z,30.86
2023-05-22T23:36:37.965Z,30.96
2023-05-22T23:39:05.960Z,30.73
2023-05-22T23:41:33.990Z,31.54
2023-05-22T23:44:02.095Z,31.19
2023-05-22T23:46:30.135Z,30.54
2023-05-22T23:48:58.193Z,29.21
2023-05-22T23:51:26.180Z,29.70
2023-05-22T23:53:55.615Z,30.47
2023-05-22T23:56:23.574Z,30.46
2023-05-22T23:58:51.630Z,30.38
